Main page
METAR-TAF:

METAR-TAF

Airports :

Leuchars Station

Leuchars, Scotland

latitude: 56-23N, longitude: 002-52W, elevation: 12 m

Current weather observation

The report was made 22 minutes ago, at 05:50 UTC
Wind 7 kt from the West/Southwest
Temperature 10°C
Humidity 82%
Pressure 1021 hPa
Visibility 10 km or more
no clouds below 1500 m and no cumulonimbus

METAR: EGQL 150550Z 25007KT CAVOK 10/07 Q1021 BLU

Time: 07:12 (06:12 UTC)

Forecast

The report was made 1 hour and 55 minutes ago, at 04:17 UTC
Forecast valid from 15 at 06 UTC to 15 at 15 UTC
Wind 6 kt from the West
Visibility 10 km or more
no clouds below 1500 m and no cumulonimbus

TAF: EGQL 150417Z 1506/1515 26006KT CAVOK

Weather observations and forecasts of more than 4000 airports (METAR and TAF reports).

The available stations are represented by yellow and red dots on the map.

Hover mouse over dot to see the name of the station.

Then click to see weather observations and forecasts.

To change the map : click on the green buttons with a black cross to zoom in, on the green button with a dash to zoom out, or on the green arrows for adjacent maps.


METAR-TAF: